Time;durP1;ratioP1;P1;durP2;ratioP2;P2;SDS_P1;SDS_P2;PMS_P1;PMS_P2;Temp;Humidity;BMP_temperature;BMP_pressure;BME280_temperature;BME280_humidity;BME280_pressure;Samples;Min_cycle;Max_cycle;Signal;HPM_P1;HPM_P2
2021/12/08 00:00:38;;;;;;;4.82;3.10;;;;;;;-140.05;100.00;61859.38;5058465;28;20296;-56
2021/12/08 00:03:09;;;;;;;4.53;3.13;;;;;;;-140.05;100.00;61859.38;5064922;28;20242;-57
2021/12/08 00:05:40;;;;;;;6.85;3.42;;;;;;;-140.05;100.00;61859.38;5054269;28;20212;-57
2021/12/08 00:08:09;;;;;;;5.28;3.30;;;;;;;-140.05;100.00;61859.38;5062417;28;20272;-58
2021/12/08 00:13:19;;;;;;;4.15;3.10;;;;;;;-140.05;100.00;61859.38;5060841;28;20192;-61
2021/12/08 00:15:51;;;;;;;5.07;3.45;;;;;;;-140.05;100.00;61859.38;5063458;28;20200;-57
2021/12/08 00:18:27;;;;;;;4.97;3.60;;;;;;;-140.05;100.00;61859.38;5069737;28;20231;-60
2021/12/08 00:20:57;;;;;;;6.05;3.53;;;;;;;-140.05;100.00;61859.38;5061363;28;20200;-63
2021/12/08 00:23:25;;;;;;;4.20;2.80;;;;;;;-140.05;100.00;61859.38;5058437;28;20214;-59
2021/12/08 00:25:53;;;;;;;4.95;3.47;;;;;;;-140.05;100.00;61859.38;5070666;28;20637;-61
2021/12/08 00:28:21;;;;;;;4.68;3.22;;;;;;;-140.05;100.00;61859.38;5069945;28;20206;-59
2021/12/08 00:30:54;;;;;;;5.05;3.95;;;;;;;-140.05;100.00;61859.38;5066195;28;20234;-58
2021/12/08 00:33:22;;;;;;;4.32;3.00;;;;;;;-140.05;100.00;61859.38;5070190;28;20230;-55
2021/12/08 00:35:51;;;;;;;6.07;4.20;;;;;;;-140.05;100.00;61859.38;5071404;28;20195;-60
2021/12/08 00:38:20;;;;;;;4.80;3.67;;;;;;;-140.05;100.00;61859.38;5072419;28;20188;-60
2021/12/08 00:40:48;;;;;;;6.20;4.07;;;;;;;-140.05;100.00;61859.38;5074150;28;20210;-61
2021/12/08 00:43:17;;;;;;;4.88;3.72;;;;;;;-140.05;100.00;61859.38;5074280;28;20204;-60
2021/12/08 00:45:45;;;;;;;5.80;4.32;;;;;;;-140.05;100.00;61859.38;5074663;28;20215;-57
2021/12/08 00:48:13;;;;;;;5.07;3.85;;;;;;;-140.05;100.00;61859.38;5073410;28;20218;-62
2021/12/08 00:50:41;;;;;;;5.22;4.10;;;;;;;-140.05;100.00;61859.38;5071833;28;20215;-60
2021/12/08 00:53:08;;;;;;;5.63;4.25;;;;;;;-140.05;100.00;61859.38;5069002;28;20207;-59
2021/12/08 00:55:37;;;;;;;5.72;4.25;;;;;;;-140.05;100.00;61859.38;5071526;28;20234;-57
2021/12/08 00:58:05;;;;;;;5.43;3.90;;;;;;;-140.05;100.00;61859.38;5071408;28;20199;-60
2021/12/08 01:00:39;;;;;;;5.40;3.88;;;;;;;-140.05;100.00;61859.38;5071851;28;20321;-58
2021/12/08 01:03:08;;;;;;;5.72;4.03;;;;;;;-140.05;100.00;61859.38;5071246;28;20194;-59
2021/12/08 01:05:39;;;;;;;6.78;4.70;;;;;;;-140.05;100.00;61859.38;5071342;28;20286;-57
2021/12/08 01:08:07;;;;;;;6.40;4.38;;;;;;;-140.05;100.00;61859.38;5057075;28;20206;-57
2021/12/08 01:10:37;;;;;;;6.10;4.43;;;;;;;-140.05;100.00;61859.38;5061265;28;20212;-60
2021/12/08 01:13:07;;;;;;;6.90;4.70;;;;;;;-140.05;100.00;61859.38;5060902;28;20534;-62
2021/12/08 01:15:36;;;;;;;7.05;4.45;;;;;;;-140.05;100.00;61859.38;5044605;28;20310;-57
2021/12/08 01:18:03;;;;;;;7.32;4.95;;;;;;;-140.05;100.00;61859.38;5065759;28;20184;-59
2021/12/08 01:20:30;;;;;;;7.72;5.07;;;;;;;-140.05;100.00;61859.38;5073747;28;20219;-57
2021/12/08 01:22:57;;;;;;;6.63;4.65;;;;;;;-140.05;100.00;61859.38;5072967;28;20290;-54
2021/12/08 01:25:24;;;;;;;6.90;5.00;;;;;;;-140.05;100.00;61859.38;5072938;28;20196;-58
2021/12/08 01:27:51;;;;;;;6.57;4.45;;;;;;;-140.05;100.00;61859.38;5072158;28;20216;-54
2021/12/08 01:30:18;;;;;;;6.47;4.97;;;;;;;-140.05;100.00;61859.38;5059846;28;20192;-56
2021/12/08 01:32:45;;;;;;;7.82;5.07;;;;;;;-140.05;100.00;61859.38;5062354;28;20188;-61
2021/12/08 01:35:12;;;;;;;6.95;5.32;;;;;;;-140.05;100.00;61859.38;5063542;28;20195;-56
2021/12/08 01:37:40;;;;;;;6.78;5.35;;;;;;;-140.05;100.00;61859.38;5058868;28;20310;-59
2021/12/08 01:40:11;;;;;;;7.68;5.55;;;;;;;-140.05;100.00;61859.38;5060433;28;20299;-51
2021/12/08 01:42:46;;;;;;;10.52;6.07;;;;;;;-140.05;100.00;61859.38;5063782;28;20280;-54
2021/12/08 01:48:05;;;;;;;8.88;6.13;;;;;;;-140.05;100.00;61859.38;5069954;28;20187;-63
2021/12/08 01:50:32;;;;;;;9.40;6.18;;;;;;;-140.05;100.00;61859.38;5056522;28;20554;-59
2021/12/08 01:53:00;;;;;;;8.32;6.10;;;;;;;-140.05;100.00;61859.38;5056756;28;20843;-60
2021/12/08 01:55:27;;;;;;;8.30;6.00;;;;;;;-140.05;100.00;61859.38;5056969;28;20242;-59
2021/12/08 01:57:54;;;;;;;9.15;6.65;;;;;;;-140.05;100.00;61859.38;5058667;28;20199;-61
2021/12/08 02:00:35;;;;;;;9.70;6.85;;;;;;;-140.05;100.00;61859.38;5054193;28;20600;-59
2021/12/08 02:03:02;;;;;;;10.70;7.50;;;;;;;-140.05;100.00;61859.38;5058764;28;20202;-62
2021/12/08 02:05:29;;;;;;;11.48;7.63;;;;;;;-140.05;100.00;61859.38;5055177;28;20196;-58
2021/12/08 02:07:56;;;;;;;10.82;7.70;;;;;;;-140.05;100.00;61859.38;5058713;28;20346;-58
2021/12/08 02:10:24;;;;;;;11.02;8.15;;;;;;;-140.05;100.00;61859.38;5060086;28;20191;-59
2021/12/08 02:12:52;;;;;;;11.60;8.02;;;;;;;-140.05;100.00;61859.38;5069489;28;20283;-63
2021/12/08 02:15:20;;;;;;;13.80;8.52;;;;;;;-140.05;100.00;61859.38;5069126;28;20199;-60
2021/12/08 02:17:52;;;;;;;12.20;8.23;;;;;;;-140.05;100.00;61859.38;5069105;28;20204;-58
2021/12/08 02:20:21;;;;;;;12.15;8.35;;;;;;;-140.05;100.00;61859.38;5057116;28;20346;-59
2021/12/08 02:22:48;;;;;;;14.82;8.70;;;;;;;-140.05;100.00;61859.38;5059388;28;20195;-57
2021/12/08 02:25:18;;;;;;;13.65;8.95;;;;;;;-140.05;100.00;61859.38;5060283;28;20192;-59
2021/12/08 02:27:46;;;;;;;17.13;9.85;;;;;;;-140.05;100.00;61859.38;5056571;28;20223;-59
2021/12/08 02:49:23;;;;;;;17.55;11.05;;;;;;;-140.05;100.00;61859.38;5050094;28;20674;-62
2021/12/08 02:51:51;;;;;;;17.48;10.70;;;;;;;-140.05;100.00;61859.38;5067803;28;20200;-60
2021/12/08 02:54:20;;;;;;;16.38;10.90;;;;;;;-140.05;100.00;61859.38;5072340;28;20234;-55
2021/12/08 02:56:47;;;;;;;20.88;11.82;;;;;;;-140.05;100.00;61859.38;5072612;28;20203;-56
2021/12/08 02:59:15;;;;;;;18.88;10.93;;;;;;;-140.05;100.00;61859.38;5072124;28;20208;-54
2021/12/08 03:01:42;;;;;;;17.77;10.35;;;;;;;-140.05;100.00;61859.38;5057364;28;20200;-55
2021/12/08 03:04:09;;;;;;;16.45;9.80;;;;;;;-140.05;100.00;61859.38;5060054;28;20206;-59
2021/12/08 03:06:37;;;;;;;18.80;12.13;;;;;;;-140.05;100.00;61859.38;5044216;28;20211;-60
2021/12/08 03:09:05;;;;;;;23.40;13.25;;;;;;;-140.05;100.00;61859.38;5062465;28;20206;-59
2021/12/08 03:11:33;;;;;;;21.38;12.82;;;;;;;-140.05;100.00;61859.38;5062966;28;20677;-54
2021/12/08 03:14:03;;;;;;;24.20;14.02;;;;;;;-140.05;100.00;61859.38;5071914;28;20186;-59
2021/12/08 03:16:30;;;;;;;24.83;14.02;;;;;;;-140.05;100.00;61859.38;5072757;28;20192;-57
2021/12/08 03:18:57;;;;;;;26.33;14.88;;;;;;;-140.05;100.00;61859.38;5072202;28;20613;-58
2021/12/08 03:21:29;;;;;;;24.17;13.35;;;;;;;-140.05;100.00;61859.38;5057920;28;20196;-61
2021/12/08 03:26:34;;;;;;;24.73;14.50;;;;;;;-140.05;100.00;61859.38;5060497;28;20250;-56
2021/12/08 03:29:15;;;;;;;28.48;14.52;;;;;;;-140.05;100.00;61859.38;5059814;28;20199;-61
2021/12/08 03:31:44;;;;;;;24.70;14.73;;;;;;;-140.05;100.00;61859.38;5061655;28;20196;-57
2021/12/08 03:34:11;;;;;;;26.63;15.52;;;;;;;-140.05;100.00;61859.38;5071391;28;20186;-60
2021/12/08 03:36:38;;;;;;;23.25;12.50;;;;;;;-140.05;100.00;61859.38;5067741;28;20203;-59
2021/12/08 03:39:06;;;;;;;24.15;13.75;;;;;;;-140.05;100.00;61859.38;5070786;28;20689;-60
2021/12/08 03:41:34;;;;;;;25.73;14.68;;;;;;;-140.05;100.00;61859.38;5070938;28;20200;-55
2021/12/08 03:44:03;;;;;;;26.67;15.23;;;;;;;-140.05;100.00;61859.38;5070679;28;20203;-57
2021/12/08 03:46:35;;;;;;;24.23;14.43;;;;;;;-140.05;100.00;61859.38;5071356;28;20223;-60
2021/12/08 03:49:06;;;;;;;24.70;14.65;;;;;;;-140.05;100.00;61859.38;5071475;28;20202;-52
2021/12/08 03:51:33;;;;;;;24.98;14.52;;;;;;;-140.05;100.00;61859.38;5058087;28;20204;-58
2021/12/08 03:53:59;;;;;;;27.17;15.60;;;;;;;-140.05;100.00;61859.38;5061122;28;20191;-59
2021/12/08 03:56:26;;;;;;;26.25;14.88;;;;;;;-140.05;100.00;61859.38;5061104;28;20211;-56
2021/12/08 03:58:53;;;;;;;26.35;15.73;;;;;;;-140.05;100.00;61859.38;5064246;28;20200;-58
2021/12/08 04:01:20;;;;;;;27.05;15.68;;;;;;;-140.05;100.00;61859.38;5062908;28;20200;-56
2021/12/08 04:03:50;;;;;;;27.27;15.85;;;;;;;-140.05;100.00;61859.38;5065881;28;20187;-58
2021/12/08 04:07:03;;;;;;;24.45;14.68;;;;;;;-140.05;100.00;61859.38;5062528;28;20200;-58
2021/12/08 04:09:26;;;;;;;27.67;15.60;;;;;;;-140.05;100.00;61859.38;5058627;28;20284;-58
2021/12/08 04:11:54;;;;;;;27.17;15.70;;;;;;;-140.05;100.00;61859.38;5062939;28;20191;-60
2021/12/08 04:14:25;;;;;;;25.60;15.02;;;;;;;-140.05;100.00;61859.38;5070981;28;20199;-57
2021/12/08 04:16:57;;;;;;;26.52;16.40;;;;;;;-140.05;100.00;61859.38;5070559;28;20192;-57
2021/12/08 04:19:25;;;;;;;25.70;15.18;;;;;;;-140.05;100.00;61859.38;5070836;28;20211;-56
2021/12/08 04:21:56;;;;;;;26.95;16.52;;;;;;;-140.05;100.00;61859.38;5071302;28;20204;-57
2021/12/08 04:24:24;;;;;;;27.67;15.88;;;;;;;-140.05;100.00;61859.38;5070946;28;20321;-56
2021/12/08 04:26:55;;;;;;;24.05;12.98;;;;;;;-140.05;100.00;61859.38;5071031;28;20223;-61
2021/12/08 04:29:28;;;;;;;24.08;14.07;;;;;;;-140.05;100.00;61859.38;5069552;28;20234;-61
2021/12/08 04:31:57;;;;;;;25.70;15.70;;;;;;;-140.05;100.00;61859.38;5051539;28;20221;-58
2021/12/08 04:34:35;;;;;;;25.30;15.07;;;;;;;-140.05;100.00;61859.38;5060967;28;20634;-62
2021/12/08 04:37:24;;;;;;;25.00;15.77;;;;;;;-140.05;100.00;61859.38;5057540;28;20199;-58
2021/12/08 04:40:18;;;;;;;28.75;14.52;;;;;;;-140.05;100.00;61859.38;5068638;28;20198;-56
2021/12/08 04:45:29;;;;;;;26.45;15.75;;;;;;;-140.05;100.00;61859.38;5070303;28;20710;-57
2021/12/08 04:48:13;;;;;;;28.48;15.93;;;;;;;-140.05;100.00;61859.38;5070299;28;20330;-57
2021/12/08 05:10:14;;;;;;;28.35;16.58;;;;;;;-140.05;100.00;61859.38;5070457;28;20610;-52
2021/12/08 05:12:41;;;;;;;28.98;16.92;;;;;;;-140.05;100.00;61859.38;5070227;28;20298;-57
2021/12/08 05:15:27;;;;;;;26.58;14.63;;;;;;;-140.05;100.00;61859.38;5070028;28;20203;-59
2021/12/08 05:18:06;;;;;;;29.20;16.58;;;;;;;-140.05;100.00;61859.38;5069228;28;20210;-58
2021/12/08 05:20:39;;;;;;;27.92;16.65;;;;;;;-140.05;100.00;61859.38;5050307;28;20210;-62
2021/12/08 05:23:18;;;;;;;39.47;18.67;;;;;;;-140.05;100.00;61859.38;5049652;28;20197;-57
2021/12/08 05:25:46;;;;;;;29.33;16.27;;;;;;;-140.05;100.00;61859.38;5049888;28;20228;-57
2021/12/08 05:28:18;;;;;;;27.90;15.73;;;;;;;-140.05;100.00;61859.38;5049334;28;20703;-54
2021/12/08 05:30:54;;;;;;;28.48;17.35;;;;;;;-140.05;100.00;61859.38;5049931;28;20197;-58
2021/12/08 05:33:22;;;;;;;31.90;17.33;;;;;;;-140.05;100.00;61859.38;5049139;28;20237;-57
2021/12/08 05:35:50;;;;;;;25.80;15.50;;;;;;;-140.05;100.00;61859.38;5049330;28;20212;-60
2021/12/08 05:38:18;;;;;;;31.40;16.30;;;;;;;-140.05;100.00;61859.38;5048911;28;20204;-56
2021/12/08 05:40:55;;;;;;;28.52;15.25;;;;;;;-140.05;100.00;61859.38;5049579;28;20642;-57
2021/12/08 05:43:22;;;;;;;25.23;14.52;;;;;;;-140.05;100.00;61859.38;5049440;28;20200;-59
2021/12/08 05:45:52;;;;;;;31.30;16.67;;;;;;;-140.05;100.00;61859.38;5048934;28;20738;-58
2021/12/08 05:48:20;;;;;;;30.40;16.30;;;;;;;-140.05;100.00;61859.38;5048518;28;20742;-59
2021/12/08 05:50:54;;;;;;;26.50;15.65;;;;;;;-140.05;100.00;61859.38;5047733;28;20204;-55
2021/12/08 05:53:23;;;;;;;47.00;26.98;;;;;;;-140.05;100.00;61859.38;5049510;28;20192;-60
2021/12/08 05:55:50;;;;;;;41.45;23.27;;;;;;;-140.05;100.00;61859.38;5048685;28;20270;-57
2021/12/08 05:58:20;;;;;;;32.30;16.85;;;;;;;-140.05;100.00;61859.38;5048976;28;20200;-53
2021/12/08 06:01:13;;;;;;;30.42;16.30;;;;;;;-140.05;100.00;61859.38;5049125;28;20196;-62
2021/12/08 06:03:41;;;;;;;30.13;16.30;;;;;;;-140.05;100.00;61859.38;5043882;28;20637;-59
2021/12/08 06:06:09;;;;;;;29.15;17.10;;;;;;;-140.05;100.00;61859.38;5049017;28;20608;-57
2021/12/08 06:08:37;;;;;;;26.63;15.07;;;;;;;-140.05;100.00;61859.38;5049107;28;20223;-61
2021/12/08 06:11:07;;;;;;;37.00;18.73;;;;;;;-140.05;100.00;61859.38;5049487;28;20200;-54
2021/12/08 06:13:36;;;;;;;29.90;17.33;;;;;;;-140.05;100.00;61859.38;5049030;28;20590;-57
2021/12/08 06:16:05;;;;;;;28.95;15.45;;;;;;;-140.05;100.00;61859.38;5050398;28;20204;-53
2021/12/08 06:18:39;;;;;;;29.20;15.10;;;;;;;-140.05;100.00;61859.38;5056847;28;20195;-62
2021/12/08 06:21:10;;;;;;;27.05;14.48;;;;;;;-140.05;100.00;61859.38;5073592;28;20208;-59
2021/12/08 06:23:38;;;;;;;22.83;12.52;;;;;;;-140.05;100.00;61859.38;5072589;28;20200;-56
2021/12/08 06:26:08;;;;;;;28.52;17.02;;;;;;;-140.05;100.00;61859.38;5072868;28;20195;-59
2021/12/08 06:28:35;;;;;;;62.80;35.47;;;;;;;-140.05;100.00;61859.38;5072171;28;20224;-56
2021/12/08 06:31:05;;;;;;;41.00;21.88;;;;;;;-140.05;100.00;61859.38;5072952;28;20184;-62
2021/12/08 06:33:33;;;;;;;30.45;17.08;;;;;;;-140.05;100.00;61859.38;5072574;28;20204;-58
2021/12/08 06:36:07;;;;;;;29.65;16.35;;;;;;;-140.05;100.00;61859.38;5071301;28;20218;-63
2021/12/08 06:38:36;;;;;;;24.38;14.35;;;;;;;-140.05;100.00;61859.38;5071749;28;20187;-61
2021/12/08 06:41:05;;;;;;;33.50;16.92;;;;;;;-140.05;100.00;61859.38;5071655;28;20188;-59
2021/12/08 06:43:37;;;;;;;30.75;15.40;;;;;;;-140.05;100.00;61859.38;5071037;28;20203;-54
2021/12/08 06:46:06;;;;;;;31.08;15.90;;;;;;;-140.05;100.00;61859.38;5072122;28;20180;-56
2021/12/08 06:48:42;;;;;;;31.70;17.17;;;;;;;-140.05;100.00;61859.38;5072103;28;20204;-59
2021/12/08 06:51:13;;;;;;;37.70;17.90;;;;;;;-140.05;100.00;61859.38;5072822;28;20201;-57
2021/12/08 06:53:43;;;;;;;31.13;16.83;;;;;;;-140.05;100.00;61859.38;5072637;28;20203;-61
2021/12/08 06:56:19;;;;;;;31.10;17.27;;;;;;;-140.05;100.00;61859.38;5072027;28;20254;-58
2021/12/08 06:58:49;;;;;;;32.28;16.27;;;;;;;-140.05;100.00;61859.38;5072226;28;20212;-62
2021/12/08 07:01:48;;;;;;;29.50;16.17;;;;;;;-140.05;100.00;61859.38;5072953;28;20269;-60
2021/12/08 07:07:15;;;;;;;34.13;17.60;;;;;;;-140.05;100.00;61859.38;5072950;28;20199;-60
2021/12/08 07:09:54;;;;;;;38.05;17.40;;;;;;;-140.05;100.00;61859.38;5073007;28;20274;-60
2021/12/08 07:12:26;;;;;;;32.15;16.30;;;;;;;-140.05;100.00;61859.38;5072084;28;20743;-57
2021/12/08 07:15:18;;;;;;;31.33;17.17;;;;;;;-140.05;100.00;61859.38;5071881;28;20662;-60
2021/12/08 07:17:50;;;;;;;29.63;15.85;;;;;;;-140.05;100.00;61859.38;5068765;28;20202;-55
2021/12/08 07:23:14;;;;;;;22.70;13.95;;;;;;;-140.05;100.00;61859.38;5072236;28;20203;-61
2021/12/08 07:25:43;;;;;;;26.48;15.88;;;;;;;-140.05;100.00;61859.38;5072093;28;20188;-61
2021/12/08 07:28:13;;;;;;;28.30;14.98;;;;;;;-140.05;100.00;61859.38;5071157;28;20215;-59
2021/12/08 07:30:46;;;;;;;28.20;16.48;;;;;;;-140.05;100.00;61859.38;5072247;28;20309;-64
2021/12/08 07:33:13;;;;;;;39.55;16.60;;;;;;;-140.05;100.00;61859.38;5071771;28;20241;-62
2021/12/08 07:35:44;;;;;;;30.40;15.60;;;;;;;-140.05;100.00;61859.38;5072038;28;20191;-63
2021/12/08 07:38:15;;;;;;;29.27;16.17;;;;;;;-140.05;100.00;61859.38;5072006;28;20730;-57
2021/12/08 07:41:12;;;;;;;28.92;15.50;;;;;;;-140.05;100.00;61859.38;5072245;28;20184;-59
2021/12/08 07:43:46;;;;;;;27.20;13.68;;;;;;;-140.05;100.00;61859.38;5071303;28;20199;-61
2021/12/08 07:46:20;;;;;;;25.00;14.57;;;;;;;-140.05;100.00;61859.38;5071774;28;20219;-60
2021/12/08 07:48:53;;;;;;;35.25;14.45;;;;;;;-140.05;100.00;61859.38;5072719;28;20219;-62
2021/12/08 07:51:30;;;;;;;25.40;14.60;;;;;;;-140.05;100.00;61859.38;5072972;28;20263;-60
2021/12/08 07:53:58;;;;;;;28.27;15.88;;;;;;;-140.05;100.00;61859.38;5071476;28;20211;-60
2021/12/08 07:56:27;;;;;;;24.90;13.60;;;;;;;-140.05;100.00;61859.38;5071580;28;20203;-59
2021/12/08 07:59:02;;;;;;;25.23;15.35;;;;;;;-140.05;100.00;61859.38;5071438;28;20278;-57
2021/12/08 08:01:35;;;;;;;28.13;16.98;;;;;;;-140.05;100.00;61859.38;5072271;28;20188;-58
2021/12/08 08:04:04;;;;;;;33.47;15.90;;;;;;;-140.05;100.00;61859.38;5071253;28;20716;-60
2021/12/08 08:06:34;;;;;;;29.10;15.93;;;;;;;-140.05;100.00;61859.38;5071733;28;20716;-61
2021/12/08 08:09:05;;;;;;;29.80;16.38;;;;;;;-140.05;100.00;61859.38;5070810;28;20230;-55
2021/12/08 08:11:36;;;;;;;25.73;14.80;;;;;;;-140.05;100.00;61859.38;5071235;28;20861;-55
2021/12/08 08:14:04;;;;;;;28.70;16.15;;;;;;;-140.05;100.00;61859.38;5071125;28;20200;-58
2021/12/08 08:16:35;;;;;;;29.48;15.82;;;;;;;-140.05;100.00;61859.38;5071726;28;20191;-59
2021/12/08 08:19:11;;;;;;;25.80;14.90;;;;;;;-140.05;100.00;61859.38;5071019;28;20636;-62
2021/12/08 08:21:45;;;;;;;25.60;15.25;;;;;;;-140.05;100.00;61859.38;5072949;28;20206;-58
2021/12/08 08:24:13;;;;;;;24.95;15.32;;;;;;;-140.05;100.00;61859.38;5073515;28;20299;-57
2021/12/08 08:26:42;;;;;;;28.67;16.23;;;;;;;-140.05;100.00;61859.38;5073813;28;20203;-56
2021/12/08 08:29:10;;;;;;;29.05;16.58;;;;;;;-140.05;100.00;61859.38;5075550;28;20207;-57
2021/12/08 08:31:41;;;;;;;29.92;16.25;;;;;;;-140.05;100.00;61859.38;5078286;28;20215;-62
2021/12/08 08:34:09;;;;;;;26.27;14.90;;;;;;;-140.05;100.00;61859.38;5072712;28;20586;-56
2021/12/08 08:36:41;;;;;;;25.77;14.57;;;;;;;-140.05;100.00;61859.38;5070773;28;20214;-55
2021/12/08 08:39:26;;;;;;;21.85;12.60;;;;;;;-140.05;100.00;61859.38;5069546;28;20294;-59
2021/12/08 08:42:01;;;;;;;26.02;14.70;;;;;;;-140.05;100.00;61859.38;5070519;28;20226;-61
2021/12/08 08:44:39;;;;;;;23.25;13.82;;;;;;;-140.05;100.00;61859.38;5070921;28;20206;-55
2021/12/08 08:47:16;;;;;;;26.42;14.52;;;;;;;-140.05;100.00;61859.38;5070325;28;20661;-57
2021/12/08 08:49:44;;;;;;;27.40;15.40;;;;;;;-140.05;100.00;61859.38;5070409;28;20219;-59
2021/12/08 08:52:40;;;;;;;28.08;14.18;;;;;;;-140.05;100.00;61859.38;5070322;28;20200;-59
2021/12/08 08:55:35;;;;;;;29.48;14.40;;;;;;;-140.05;100.00;61859.38;5069676;28;20239;-63
2021/12/08 08:58:04;;;;;;;25.70;14.85;;;;;;;-140.05;100.00;61859.38;5069823;28;20226;-62
2021/12/08 09:00:49;;;;;;;25.10;15.05;;;;;;;-140.05;100.00;61859.38;5071496;28;20212;-58
2021/12/08 09:03:21;;;;;;;26.90;15.00;;;;;;;-140.05;100.00;61859.38;5071124;28;20206;-64
2021/12/08 09:05:54;;;;;;;27.92;15.25;;;;;;;-140.05;100.00;61859.38;5072001;28;20203;-60
2021/12/08 09:08:25;;;;;;;25.35;14.98;;;;;;;-140.05;100.00;61859.38;5071189;28;20223;-58
2021/12/08 09:10:57;;;;;;;24.55;14.82;;;;;;;-140.05;100.00;61859.38;5069691;28;20223;-61
2021/12/08 09:13:34;;;;;;;24.85;14.63;;;;;;;-140.05;100.00;61859.38;5069607;28;20198;-61
2021/12/08 09:16:08;;;;;;;25.23;14.60;;;;;;;-140.05;100.00;61859.38;5070014;28;20204;-57
2021/12/08 09:18:52;;;;;;;25.73;14.15;;;;;;;-140.05;100.00;61859.38;5069375;28;20195;-59
2021/12/08 09:21:30;;;;;;;23.08;13.10;;;;;;;-140.05;100.00;61859.38;5070269;28;20199;-61
2021/12/08 09:24:02;;;;;;;26.05;13.52;;;;;;;-140.05;100.00;61859.38;5069296;28;20184;-60
2021/12/08 09:26:32;;;;;;;30.95;15.88;;;;;;;-140.05;100.00;61859.38;5069553;28;20666;-60
2021/12/08 09:29:05;;;;;;;36.95;20.40;;;;;;;-140.05;100.00;61859.38;5069273;28;20235;-59
2021/12/08 09:31:44;;;;;;;42.00;20.67;;;;;;;-140.05;100.00;61859.38;5070284;28;20685;-60
2021/12/08 09:34:37;;;;;;;91.80;40.60;;;;;;;-140.05;100.00;61859.38;5069568;28;20207;-61
2021/12/08 09:37:10;;;;;;;99.95;34.90;;;;;;;-140.05;100.00;61859.38;5069155;28;20206;-62
2021/12/08 09:39:46;;;;;;;170.60;54.63;;;;;;;-140.05;100.00;61859.38;5069365;28;20191;-58
2021/12/08 09:42:26;;;;;;;96.57;34.47;;;;;;;-140.05;100.00;61859.38;5069767;28;20195;-58
2021/12/08 09:44:58;;;;;;;164.25;54.20;;;;;;;-140.05;100.00;61859.38;5069115;28;20207;-63
2021/12/08 09:47:29;;;;;;;141.65;49.00;;;;;;;-140.05;100.00;61859.38;5069146;28;20655;-56
2021/12/08 09:50:00;;;;;;;120.43;43.70;;;;;;;-140.05;100.00;61859.38;5068922;28;20243;-57
2021/12/08 09:52:28;;;;;;;71.78;31.23;;;;;;;-140.05;100.00;61859.38;5069064;28;20216;-55
2021/12/08 09:55:00;;;;;;;43.00;21.35;;;;;;;-140.05;100.00;61859.38;5069663;28;20227;-59
2021/12/08 09:57:29;;;;;;;62.20;28.02;;;;;;;-140.05;100.00;61859.38;5070327;28;20286;-61
2021/12/08 09:59:57;;;;;;;85.55;37.30;;;;;;;-140.05;100.00;61859.38;5070144;28;20203;-59
2021/12/08 10:02:32;;;;;;;119.55;46.83;;;;;;;-140.05;100.00;61859.38;5069588;28;20194;-56
2021/12/08 10:05:06;;;;;;;69.15;31.70;;;;;;;-140.05;100.00;61859.38;5069381;28;20190;-57
2021/12/08 10:07:33;;;;;;;91.30;43.78;;;;;;;-140.05;100.00;61859.38;5068585;28;20230;-59
2021/12/08 10:10:00;;;;;;;63.45;31.23;;;;;;;-140.05;100.00;61859.38;5069296;28;20211;-59
2021/12/08 10:12:27;;;;;;;65.57;32.00;;;;;;;-140.05;100.00;61859.38;5069087;28;20622;-58
2021/12/08 10:14:57;;;;;;;38.13;21.00;;;;;;;-140.05;100.00;61859.38;5069344;28;20204;-58
2021/12/08 10:17:24;;;;;;;61.88;27.75;;;;;;;-140.05;100.00;61859.38;5068801;28;20203;-58
2021/12/08 10:20:11;;;;;;;67.85;25.13;;;;;;;-140.05;100.00;61859.38;5069398;28;20196;-64
2021/12/08 10:22:40;;;;;;;123.18;41.25;;;;;;;-140.05;100.00;61859.38;5068763;28;20213;-62
2021/12/08 10:25:17;;;;;;;62.20;24.60;;;;;;;-140.05;100.00;61859.38;5069365;28;20553;-60
2021/12/08 10:28:03;;;;;;;93.30;36.25;;;;;;;-140.05;100.00;61859.38;5068767;28;20204;-59
2021/12/08 10:30:32;;;;;;;89.93;35.35;;;;;;;-140.05;100.00;61859.38;5068870;28;20227;-58
2021/12/08 10:33:07;;;;;;;165.82;48.17;;;;;;;-140.05;100.00;61859.38;5068697;28;20234;-57
2021/12/08 10:35:49;;;;;;;47.30;22.33;;;;;;;-140.05;100.00;61859.38;5069086;28;20200;-52
2021/12/08 10:38:19;;;;;;;147.45;47.78;;;;;;;-140.05;100.00;61859.38;5068599;28;20306;-53
2021/12/08 10:40:57;;;;;;;96.70;37.38;;;;;;;-140.05;100.00;61859.38;5069382;28;20188;-56
2021/12/08 10:43:24;;;;;;;101.10;39.13;;;;;;;-140.05;100.00;61859.38;5068723;28;20749;-55
2021/12/08 10:46:17;;;;;;;68.45;31.15;;;;;;;-140.05;100.00;61859.38;5068284;28;20192;-59
2021/12/08 10:48:48;;;;;;;51.88;25.67;;;;;;;-140.05;100.00;61859.38;5067687;28;20223;-57
2021/12/08 10:54:26;;;;;;;75.75;35.25;;;;;;;-140.05;100.00;61859.38;5068619;28;20207;-61
2021/12/08 10:56:56;;;;;;;81.95;37.35;;;;;;;-140.05;100.00;61859.38;5068435;28;20215;-62
2021/12/08 10:59:26;;;;;;;73.90;38.85;;;;;;;-140.05;100.00;61859.38;5068740;28;20203;-60
2021/12/08 11:01:59;;;;;;;39.90;23.23;;;;;;;-140.05;100.00;61859.38;5068912;28;20188;-59
2021/12/08 11:04:32;;;;;;;43.45;24.80;;;;;;;-140.05;100.00;61859.38;5072565;28;20230;-57
2021/12/08 11:07:07;;;;;;;42.40;24.92;;;;;;;-140.05;100.00;61859.38;5071122;28;20208;-53
2021/12/08 11:09:42;;;;;;;56.50;27.63;;;;;;;-140.05;100.00;61859.38;5072558;28;20218;-55
2021/12/08 11:12:14;;;;;;;80.05;40.05;;;;;;;-140.05;100.00;61859.38;5072497;28;20324;-55
2021/12/08 11:14:46;;;;;;;27.80;16.77;;;;;;;-140.05;100.00;61859.38;5072741;28;20198;-58
2021/12/08 11:17:29;;;;;;;26.83;16.67;;;;;;;-140.05;100.00;61859.38;5071821;28;20188;-59
2021/12/08 11:20:17;;;;;;;30.02;18.08;;;;;;;-140.05;100.00;61859.38;5071869;28;20230;-60
2021/12/08 11:23:00;;;;;;;27.30;16.73;;;;;;;-140.05;100.00;61859.38;5071961;28;20604;-60
2021/12/08 11:25:39;;;;;;;27.17;16.10;;;;;;;-140.05;100.00;61859.38;5071910;28;20200;-58
2021/12/08 11:28:18;;;;;;;25.92;16.67;;;;;;;-140.05;100.00;61859.38;5071368;28;20299;-60
2021/12/08 11:30:45;;;;;;;27.60;18.02;;;;;;;-140.05;100.00;61859.38;5072092;28;20222;-56
2021/12/08 11:33:21;;;;;;;26.45;17.02;;;;;;;-140.05;100.00;61859.38;5071418;28;20203;-61
2021/12/08 11:36:05;;;;;;;27.15;16.88;;;;;;;-140.05;100.00;61859.38;5071410;28;20191;-59
2021/12/08 11:38:32;;;;;;;24.60;15.35;;;;;;;-140.05;100.00;61859.38;5071566;28;20207;-61
2021/12/08 11:41:00;;;;;;;24.02;16.30;;;;;;;-140.05;100.00;61859.38;5071637;28;20188;-55
2021/12/08 11:43:30;;;;;;;27.42;15.27;;;;;;;-140.05;100.00;61859.38;5071132;28;20192;-59
2021/12/08 11:46:17;;;;;;;23.33;15.55;;;;;;;-140.05;100.00;61859.38;5071282;28;20287;-61
2021/12/08 11:49:04;;;;;;;28.42;16.30;;;;;;;-140.05;100.00;61859.38;5071193;28;20660;-55
2021/12/08 11:51:59;;;;;;;37.03;17.98;;;;;;;-140.05;100.00;61859.38;5071406;28;20295;-60
2021/12/08 11:54:49;;;;;;;24.50;15.25;;;;;;;-140.05;100.00;61859.38;5069132;28;20237;-60
2021/12/08 11:57:24;;;;;;;25.70;16.17;;;;;;;-140.05;100.00;61859.38;5070655;28;20219;-58
2021/12/08 11:59:58;;;;;;;23.88;15.05;;;;;;;-140.05;100.00;61859.38;5071285;28;20199;-56
2021/12/08 12:02:35;;;;;;;22.02;14.10;;;;;;;-140.05;100.00;61859.38;5071000;28;20188;-56
2021/12/08 12:05:07;;;;;;;22.98;13.98;;;;;;;-140.05;100.00;61859.38;5071023;28;20659;-55
2021/12/08 12:07:34;;;;;;;23.35;14.85;;;;;;;-140.05;100.00;61859.38;5070533;28;20679;-59
2021/12/08 12:10:03;;;;;;;23.90;15.15;;;;;;;-140.05;100.00;61859.38;5071075;28;20220;-60
2021/12/08 12:12:30;;;;;;;21.92;14.52;;;;;;;-140.05;100.00;61859.38;5070740;28;20192;-59
2021/12/08 12:14:57;;;;;;;21.27;13.37;;;;;;;-140.05;100.00;61859.38;5070860;28;20206;-59
2021/12/08 12:17:24;;;;;;;23.10;14.70;;;;;;;-140.05;100.00;61859.38;5070382;28;20465;-57